createdAt,value
2019-03-26T00:01:50.904Z,2.20
2019-03-26T00:04:22.239Z,2.07
2019-03-26T00:06:53.536Z,1.63
2019-03-26T00:09:24.896Z,1.97
2019-03-26T00:11:56.300Z,2.30
2019-03-26T00:14:28.594Z,2.10
2019-03-26T00:16:59.948Z,1.90
2019-03-26T00:19:31.267Z,2.37
2019-03-26T00:22:02.570Z,2.07
2019-03-26T00:24:33.865Z,1.67
2019-03-26T00:27:07.717Z,1.67
2019-03-26T00:29:38.166Z,1.90
2019-03-26T00:32:09.470Z,1.73
2019-03-26T00:34:40.783Z,1.60
2019-03-26T00:37:12.063Z,1.83
2019-03-26T00:39:43.332Z,2.10
2019-03-26T00:42:14.733Z,1.63
2019-03-26T00:44:46.113Z,1.97
2019-03-26T00:47:17.462Z,1.87
2019-03-26T00:49:48.754Z,1.47
2019-03-26T00:52:20.087Z,1.83
2019-03-26T00:54:51.377Z,2.50
2019-03-26T00:57:22.690Z,2.07
2019-03-26T00:59:54.042Z,1.93
2019-03-26T01:02:25.377Z,1.20
2019-03-26T01:04:56.653Z,1.37
2019-03-26T01:07:27.978Z,1.60
2019-03-26T01:09:59.333Z,1.70
2019-03-26T01:12:31.277Z,2.20
2019-03-26T01:15:02.689Z,2.40
2019-03-26T01:17:35.138Z,3.03
2019-03-26T01:20:06.702Z,2.10
2019-03-26T01:22:38.039Z,1.63
2019-03-26T01:25:09.378Z,2.00
2019-03-26T01:27:40.670Z,2.23
2019-03-26T01:30:12.169Z,1.90
2019-03-26T01:32:43.542Z,1.90
2019-03-26T01:35:14.829Z,2.00
2019-03-26T01:37:46.125Z,2.10
2019-03-26T01:40:17.442Z,1.57
2019-03-26T01:42:49.911Z,1.90
2019-03-26T01:45:22.107Z,1.43
2019-03-26T01:47:53.378Z,1.53
2019-03-26T01:50:24.681Z,1.27
2019-03-26T01:52:55.969Z,1.20
2019-03-26T01:55:27.238Z,1.20
2019-03-26T01:57:58.617Z,1.90
2019-03-26T02:00:29.932Z,1.90
2019-03-26T02:05:44.195Z,1.23
2019-03-26T02:08:15.501Z,1.70
2019-03-26T02:10:46.788Z,1.47
2019-03-26T02:13:18.200Z,1.73
2019-03-26T02:15:49.485Z,1.70
2019-03-26T02:18:20.767Z,1.73
2019-03-26T02:20:52.040Z,1.30
2019-03-26T02:23:23.326Z,1.47
2019-03-26T02:25:54.615Z,1.23
2019-03-26T02:28:25.903Z,1.53
2019-03-26T02:30:57.186Z,1.23
2019-03-26T02:33:28.488Z,1.90
2019-03-26T02:35:59.814Z,1.07
2019-03-26T02:38:31.106Z,1.80
2019-03-26T02:41:02.376Z,2.10
2019-03-26T02:43:33.679Z,1.40
2019-03-26T02:46:05.028Z,1.87
2019-03-26T02:48:36.306Z,1.40
2019-03-26T02:51:07.592Z,1.77
2019-03-26T02:53:38.883Z,1.57
2019-03-26T02:56:10.154Z,1.23
2019-03-26T02:58:41.433Z,1.50
2019-03-26T03:01:12.774Z,1.43
2019-03-26T03:03:44.116Z,1.67
2019-03-26T03:06:15.391Z,1.50
2019-03-26T03:08:46.669Z,1.53
2019-03-26T03:11:18.898Z,1.30
2019-03-26T03:13:50.169Z,1.90
2019-03-26T03:16:21.481Z,2.00
2019-03-26T03:18:52.731Z,1.63
2019-03-26T03:21:24.012Z,1.33
2019-03-26T03:23:55.282Z,1.90
2019-03-26T03:26:26.560Z,1.93
2019-03-26T03:28:58.789Z,1.80
2019-03-26T03:31:30.104Z,1.80
2019-03-26T03:34:01.374Z,1.90
2019-03-26T03:36:32.629Z,1.90
2019-03-26T03:39:05.167Z,1.57
2019-03-26T03:41:36.659Z,1.70
2019-03-26T03:44:07.990Z,1.70
2019-03-26T03:46:41.367Z,2.13
2019-03-26T03:49:12.843Z,1.53
2019-03-26T03:51:45.513Z,1.87
2019-03-26T03:54:17.391Z,2.10
2019-03-26T03:56:51.839Z,1.60
2019-03-26T03:59:24.309Z,1.90
2019-03-26T04:01:55.813Z,1.70
2019-03-26T04:04:28.034Z,1.53
2019-03-26T04:06:59.350Z,2.03
2019-03-26T04:09:30.711Z,1.43
2019-03-26T04:12:01.987Z,1.93
2019-03-26T04:14:33.231Z,1.57
2019-03-26T04:17:04.506Z,1.50
2019-03-26T04:19:35.763Z,2.30
2019-03-26T04:22:07.039Z,2.17
2019-03-26T04:24:38.303Z,1.70
2019-03-26T04:27:09.562Z,1.97
2019-03-26T04:29:40.837Z,2.03
2019-03-26T04:32:12.124Z,1.83
2019-03-26T04:34:43.391Z,1.93
2019-03-26T04:37:14.682Z,1.77
2019-03-26T04:39:45.947Z,2.03
2019-03-26T04:42:17.853Z,2.00
2019-03-26T04:44:49.129Z,2.40
2019-03-26T04:47:20.531Z,2.37
2019-03-26T04:49:51.824Z,1.90
2019-03-26T04:52:23.089Z,2.07
2019-03-26T04:54:54.361Z,2.03
2019-03-26T04:57:25.638Z,1.90
2019-03-26T04:59:56.931Z,2.30
2019-03-26T05:02:28.195Z,2.10
2019-03-26T05:04:59.478Z,1.90
2019-03-26T05:07:30.756Z,1.80
2019-03-26T05:10:02.048Z,1.70
2019-03-26T05:12:33.380Z,1.83
2019-03-26T05:15:04.754Z,2.27
2019-03-26T05:17:37.642Z,2.13
2019-03-26T05:20:09.238Z,2.17
2019-03-26T05:22:40.515Z,2.10
2019-03-26T05:25:11.886Z,2.40
2019-03-26T05:27:45.627Z,1.93
2019-03-26T05:30:16.212Z,2.10
2019-03-26T05:32:47.496Z,2.00
2019-03-26T05:35:18.781Z,1.87
2019-03-26T05:37:50.087Z,1.87
2019-03-26T05:40:21.462Z,1.90
2019-03-26T05:42:53.529Z,2.80
2019-03-26T05:45:24.877Z,2.40
2019-03-26T05:47:57.067Z,2.37
2019-03-26T05:50:28.621Z,3.70
2019-03-26T05:52:59.927Z,1.70
2019-03-26T05:55:31.210Z,1.73
2019-03-26T05:58:02.511Z,1.90
2019-03-26T06:00:33.785Z,1.73
2019-03-26T06:03:05.075Z,2.03
2019-03-26T06:05:36.359Z,1.93
2019-03-26T06:08:09.953Z,2.00
2019-03-26T06:10:41.238Z,2.13
2019-03-26T06:13:12.526Z,2.40
2019-03-26T06:15:43.784Z,1.90
2019-03-26T06:18:15.110Z,2.60
2019-03-26T06:20:46.475Z,2.00
2019-03-26T06:23:17.868Z,1.83
2019-03-26T06:25:49.194Z,2.90
2019-03-26T06:28:20.482Z,2.00
2019-03-26T06:30:51.886Z,2.43
2019-03-26T06:33:23.190Z,2.00
2019-03-26T06:35:54.549Z,1.90
2019-03-26T06:38:25.840Z,2.43
2019-03-26T06:40:57.147Z,1.97
2019-03-26T06:43:30.569Z,2.20
2019-03-26T06:46:01.939Z,2.00
2019-03-26T06:48:35.141Z,2.23
2019-03-26T06:51:06.441Z,2.97
2019-03-26T06:53:37.793Z,2.10
2019-03-26T06:56:09.090Z,2.23
2019-03-26T06:58:40.399Z,2.30
2019-03-26T07:01:11.718Z,2.23
2019-03-26T07:03:42.999Z,2.20
2019-03-26T07:06:14.267Z,1.87
2019-03-26T07:08:45.516Z,2.10
2019-03-26T07:11:16.795Z,1.87
2019-03-26T07:13:48.111Z,2.57
2019-03-26T07:16:19.479Z,2.30
2019-03-26T07:18:50.782Z,2.17
2019-03-26T07:21:22.046Z,1.73
2019-03-26T07:23:53.317Z,2.27
2019-03-26T07:26:24.651Z,2.33
2019-03-26T07:28:56.931Z,1.70
2019-03-26T07:31:28.309Z,2.07
2019-03-26T07:33:59.598Z,1.90
2019-03-26T07:36:30.851Z,2.07
2019-03-26T07:39:02.116Z,2.40
2019-03-26T07:41:33.444Z,1.57
2019-03-26T07:44:04.867Z,1.53
2019-03-26T07:46:36.144Z,1.80
2019-03-26T07:49:07.586Z,2.33
2019-03-26T07:51:38.892Z,1.90
2019-03-26T07:54:10.205Z,2.00
2019-03-26T07:56:41.529Z,1.80
2019-03-26T07:59:12.821Z,1.47
2019-03-26T08:01:44.111Z,1.70
2019-03-26T08:04:15.457Z,2.57
2019-03-26T08:06:46.737Z,1.90
2019-03-26T08:09:18.049Z,2.00
2019-03-26T08:11:49.402Z,2.07
2019-03-26T08:14:20.793Z,2.73
2019-03-26T08:16:52.172Z,1.63
2019-03-26T08:19:23.487Z,1.70
2019-03-26T08:21:54.785Z,2.13
2019-03-26T08:24:26.055Z,3.07
2019-03-26T08:26:57.343Z,3.00
2019-03-26T08:29:28.625Z,2.30
2019-03-26T08:31:59.926Z,1.60
2019-03-26T08:34:31.198Z,1.70
2019-03-26T08:37:02.782Z,2.37
2019-03-26T08:39:34.105Z,2.50
2019-03-26T08:42:05.375Z,2.30
2019-03-26T08:44:37.191Z,2.17
2019-03-26T08:47:08.460Z,1.80
2019-03-26T08:49:39.800Z,2.27
2019-03-26T08:52:11.074Z,1.97
2019-03-26T08:54:42.367Z,2.47
2019-03-26T08:57:13.775Z,1.90
2019-03-26T08:59:45.030Z,1.70
2019-03-26T09:02:16.321Z,2.53
2019-03-26T09:04:47.620Z,1.93
2019-03-26T09:07:18.949Z,2.47
2019-03-26T09:09:50.231Z,1.67
2019-03-26T09:12:21.539Z,1.70
2019-03-26T09:14:52.950Z,2.00
2019-03-26T09:17:24.235Z,1.60
2019-03-26T09:19:55.579Z,2.07
2019-03-26T09:22:26.863Z,1.83
2019-03-26T09:24:58.163Z,1.83
2019-03-26T09:27:29.471Z,1.90
2019-03-26T09:30:00.801Z,1.97
2019-03-26T09:32:32.206Z,2.87
2019-03-26T09:35:03.514Z,1.87
2019-03-26T09:37:34.806Z,2.17
2019-03-26T09:40:06.659Z,1.53
2019-03-26T09:42:38.163Z,1.70
2019-03-26T09:45:11.348Z,2.43
2019-03-26T09:47:42.707Z,1.80
2019-03-26T09:50:15.330Z,2.03
2019-03-26T09:52:46.642Z,1.93
2019-03-26T09:55:17.906Z,2.17
2019-03-26T09:57:49.203Z,2.10
2019-03-26T10:00:20.550Z,2.43
2019-03-26T10:02:51.867Z,2.57
2019-03-26T10:05:23.186Z,2.33
2019-03-26T10:07:54.496Z,2.10
2019-03-26T10:10:25.789Z,2.37
2019-03-26T10:12:57.081Z,1.97
2019-03-26T10:15:28.394Z,2.63
2019-03-26T10:17:59.695Z,2.03
2019-03-26T10:20:31.012Z,1.90
2019-03-26T10:23:02.293Z,2.20
2019-03-26T10:25:33.615Z,1.80
2019-03-26T10:28:05.036Z,1.90
2019-03-26T10:30:38.346Z,2.23
2019-03-26T10:33:10.651Z,2.67
2019-03-26T10:35:41.980Z,2.10
2019-03-26T10:38:13.383Z,1.97
2019-03-26T10:40:44.677Z,1.73
2019-03-26T10:43:15.969Z,2.07
2019-03-26T10:45:48.614Z,1.90
2019-03-26T10:48:20.205Z,1.70
2019-03-26T10:50:51.951Z,1.80
2019-03-26T10:53:23.295Z,1.43
2019-03-26T10:55:54.550Z,1.77
2019-03-26T10:58:25.835Z,1.70
2019-03-26T11:00:57.108Z,2.07
2019-03-26T11:03:28.422Z,2.10
2019-03-26T11:05:59.714Z,1.80
2019-03-26T11:08:31.022Z,1.40
2019-03-26T11:11:02.328Z,1.90
2019-03-26T11:13:33.751Z,1.40
2019-03-26T11:16:05.123Z,1.43
2019-03-26T11:18:36.473Z,2.37
2019-03-26T11:21:07.751Z,2.17
2019-03-26T11:23:39.044Z,1.83
2019-03-26T11:26:10.353Z,1.67
2019-03-26T11:28:41.629Z,2.93
2019-03-26T11:31:12.939Z,1.73
2019-03-26T11:33:44.246Z,1.90
2019-03-26T11:36:15.567Z,1.80
2019-03-26T11:38:46.867Z,1.40
2019-03-26T11:41:18.193Z,1.77
2019-03-26T11:43:49.492Z,1.57
2019-03-26T11:46:21.762Z,2.40
2019-03-26T11:48:53.061Z,2.10
2019-03-26T11:51:25.251Z,1.43
2019-03-26T11:53:56.586Z,1.67
2019-03-26T11:56:27.847Z,2.57
2019-03-26T11:58:59.152Z,1.53
2019-03-26T12:01:30.438Z,1.60
2019-03-26T12:04:01.770Z,1.50
2019-03-26T12:06:33.088Z,1.57
2019-03-26T12:09:06.496Z,2.17
2019-03-26T12:11:37.998Z,2.23
2019-03-26T12:14:09.375Z,1.40
2019-03-26T12:16:40.715Z,1.90
2019-03-26T12:19:12.043Z,1.90
2019-03-26T12:21:43.350Z,2.00
2019-03-26T12:24:14.640Z,1.40
2019-03-26T12:26:45.964Z,1.50
2019-03-26T12:29:18.262Z,1.50
2019-03-26T12:31:49.634Z,1.50
2019-03-26T12:34:20.955Z,1.57
2019-03-26T12:36:52.274Z,1.73
2019-03-26T12:39:23.653Z,1.67
2019-03-26T12:41:54.948Z,2.37
2019-03-26T12:44:27.239Z,2.20
2019-03-26T12:46:58.603Z,1.60
2019-03-26T12:49:29.922Z,1.73
2019-03-26T12:52:02.214Z,1.73
2019-03-26T12:54:34.602Z,1.30
2019-03-26T12:57:05.920Z,2.30
2019-03-26T12:59:37.253Z,1.83
2019-03-26T13:02:08.525Z,3.20
2019-03-26T13:04:39.802Z,2.17
2019-03-26T13:07:11.115Z,2.40
2019-03-26T13:09:42.407Z,2.10
2019-03-26T13:12:13.865Z,2.17
2019-03-26T13:14:45.195Z,1.80
2019-03-26T13:17:17.399Z,2.10
2019-03-26T13:19:48.721Z,2.37
2019-03-26T13:22:20.031Z,2.27
2019-03-26T13:24:51.329Z,2.17
2019-03-26T13:27:22.695Z,2.47
2019-03-26T13:29:53.979Z,2.60
2019-03-26T13:32:25.303Z,2.50
2019-03-26T13:34:56.600Z,3.00
2019-03-26T13:37:27.900Z,2.87
2019-03-26T13:39:59.238Z,2.00
2019-03-26T13:42:30.519Z,2.23
2019-03-26T13:45:01.850Z,1.80
2019-03-26T13:47:34.678Z,2.13
2019-03-26T13:50:06.666Z,2.07
2019-03-26T13:52:38.230Z,1.73
2019-03-26T13:55:09.951Z,1.77
2019-03-26T13:57:41.265Z,1.60
2019-03-26T14:00:13.156Z,1.97
2019-03-26T14:02:44.496Z,1.60
2019-03-26T14:05:25.657Z,1.80
2019-03-26T14:07:57.010Z,1.80
2019-03-26T14:10:40.282Z,2.50
2019-03-26T14:13:01.431Z,3.03
2019-03-26T14:15:32.829Z,1.87
2019-03-26T14:18:04.167Z,1.70
2019-03-26T14:20:35.595Z,2.00
2019-03-26T14:23:06.954Z,2.10
2019-03-26T14:25:38.302Z,1.87
2019-03-26T14:28:09.631Z,1.63
2019-03-26T14:30:44.866Z,2.17
2019-03-26T14:33:16.186Z,1.83
2019-03-26T14:35:47.505Z,1.77
2019-03-26T14:38:18.896Z,1.33
2019-03-26T14:40:55.007Z,1.47
2019-03-26T14:43:23.443Z,1.57
2019-03-26T14:45:54.770Z,2.20
2019-03-26T14:48:26.157Z,1.30
2019-03-26T14:50:57.564Z,1.50
2019-03-26T14:53:28.944Z,2.00
2019-03-26T14:56:00.286Z,3.07
2019-03-26T14:58:31.664Z,1.70
2019-03-26T15:01:03.041Z,1.27
2019-03-26T15:03:34.584Z,1.47
2019-03-26T15:06:06.027Z,1.53
2019-03-26T15:08:37.396Z,1.70
2019-03-26T15:11:08.726Z,1.53
2019-03-26T15:13:40.070Z,1.73
2019-03-26T15:16:11.382Z,1.73
2019-03-26T15:18:42.729Z,1.80
2019-03-26T15:21:14.133Z,1.77
2019-03-26T15:23:45.514Z,1.80
2019-03-26T15:26:16.950Z,1.73
2019-03-26T15:28:48.293Z,2.00
2019-03-26T15:31:19.654Z,1.10
2019-03-26T15:33:50.960Z,2.23
2019-03-26T15:36:22.256Z,1.73
2019-03-26T15:38:54.562Z,1.43
2019-03-26T15:41:25.854Z,1.80
2019-03-26T15:43:57.177Z,1.60
2019-03-26T15:46:28.497Z,1.63
2019-03-26T15:48:59.811Z,1.53
2019-03-26T15:51:31.141Z,1.57
2019-03-26T15:54:02.570Z,1.53
2019-03-26T15:56:33.869Z,1.50
2019-03-26T15:59:05.197Z,1.70
2019-03-26T16:01:36.615Z,1.53
2019-03-26T16:04:07.889Z,1.57
2019-03-26T16:06:39.197Z,1.50
2019-03-26T16:09:10.527Z,1.40
2019-03-26T16:11:41.867Z,1.37
2019-03-26T16:14:13.243Z,1.60
2019-03-26T16:16:44.603Z,1.30
2019-03-26T16:19:18.027Z,1.60
2019-03-26T16:21:49.882Z,1.63
2019-03-26T16:24:23.518Z,1.60
2019-03-26T16:26:54.835Z,1.50
2019-03-26T16:29:26.252Z,1.90
2019-03-26T16:31:57.574Z,1.97
2019-03-26T16:34:28.886Z,1.87
2019-03-26T16:37:00.306Z,2.53
2019-03-26T16:39:32.339Z,2.37
2019-03-26T16:42:03.757Z,2.70
2019-03-26T16:44:35.066Z,2.10
2019-03-26T16:47:06.952Z,4.10
2019-03-26T16:49:38.318Z,2.10
2019-03-26T16:52:09.654Z,2.13
2019-03-26T16:54:41.132Z,2.23
2019-03-26T16:57:12.490Z,2.07
2019-03-26T16:59:43.776Z,1.90
2019-03-26T17:02:15.120Z,1.60
2019-03-26T17:04:47.046Z,1.50
2019-03-26T17:07:18.534Z,1.90
2019-03-26T17:09:49.976Z,1.63
2019-03-26T17:12:21.487Z,1.87
2019-03-26T17:14:52.886Z,1.73
2019-03-26T17:17:24.261Z,1.90
2019-03-26T17:19:55.672Z,1.63
2019-03-26T17:22:27.059Z,1.60
2019-03-26T17:24:58.450Z,1.87
2019-03-26T17:27:29.776Z,1.77
2019-03-26T17:30:01.129Z,1.40
2019-03-26T17:32:32.458Z,1.40
2019-03-26T17:35:03.931Z,1.40
2019-03-26T17:37:35.463Z,2.00
2019-03-26T17:40:07.015Z,2.33
2019-03-26T17:42:38.523Z,2.30
2019-03-26T17:45:10.052Z,2.10
2019-03-26T17:47:42.370Z,1.93
2019-03-26T17:50:13.941Z,1.87
2019-03-26T17:52:45.324Z,1.80
2019-03-26T17:55:17.663Z,1.93
2019-03-26T17:57:48.989Z,1.57
2019-03-26T18:00:26.520Z,2.20
2019-03-26T18:02:57.902Z,2.13
2019-03-26T18:05:29.920Z,2.87
2019-03-26T18:08:02.460Z,2.27
2019-03-26T18:10:34.247Z,2.83
2019-03-26T18:13:05.655Z,2.43
2019-03-26T18:15:37.252Z,3.27
2019-03-26T18:18:08.615Z,3.23
2019-03-26T18:20:40.206Z,2.37
2019-03-26T18:23:11.672Z,2.80
2019-03-26T18:25:43.264Z,2.97
2019-03-26T18:28:14.746Z,2.87
2019-03-26T18:30:46.087Z,3.17
2019-03-26T18:33:17.398Z,3.00
2019-03-26T18:35:48.792Z,3.13
2019-03-26T18:38:20.127Z,3.47
2019-03-26T18:40:51.452Z,3.60
2019-03-26T18:43:22.842Z,3.97
2019-03-26T18:45:54.305Z,3.23
2019-03-26T18:48:25.947Z,3.70
2019-03-26T18:50:57.320Z,3.70
2019-03-26T18:53:28.687Z,3.73
2019-03-26T18:56:00.544Z,3.03
2019-03-26T18:58:32.006Z,4.10
2019-03-26T19:01:03.329Z,3.53
2019-03-26T19:03:34.836Z,3.97
2019-03-26T19:06:06.168Z,3.90
2019-03-26T19:08:39.972Z,4.70
2019-03-26T19:11:11.655Z,4.23
2019-03-26T19:13:43.039Z,3.77
2019-03-26T19:16:14.376Z,4.63
2019-03-26T19:18:45.696Z,3.77
2019-03-26T19:21:17.040Z,3.53
2019-03-26T19:23:48.481Z,3.77
2019-03-26T19:26:19.850Z,3.77
2019-03-26T19:28:51.220Z,5.77
2019-03-26T19:31:31.145Z,4.73
2019-03-26T19:34:02.521Z,4.50
2019-03-26T19:36:34.619Z,6.80
2019-03-26T19:39:08.196Z,5.47
2019-03-26T19:41:40.115Z,8.47
2019-03-26T19:44:11.514Z,8.03
2019-03-26T19:46:42.910Z,11.07
2019-03-26T19:49:15.650Z,9.77
2019-03-26T19:51:47.110Z,4.80
2019-03-26T19:54:18.495Z,4.07
2019-03-26T19:56:50.193Z,3.57
2019-03-26T19:59:21.805Z,7.40
2019-03-26T20:01:53.314Z,6.40
2019-03-26T20:04:24.671Z,6.70
2019-03-26T20:06:56.093Z,4.60
2019-03-26T20:09:27.408Z,3.13
2019-03-26T20:11:58.856Z,3.20
2019-03-26T20:14:30.330Z,3.37
2019-03-26T20:17:01.772Z,4.23
2019-03-26T20:19:33.271Z,3.70
2019-03-26T20:22:04.640Z,4.20
2019-03-26T20:24:36.097Z,3.80
2019-03-26T20:27:07.515Z,2.63
2019-03-26T20:29:39.000Z,3.80
2019-03-26T20:32:10.367Z,3.03
2019-03-26T20:34:41.726Z,3.90
2019-03-26T20:37:13.120Z,3.47
2019-03-26T20:39:44.468Z,4.10
2019-03-26T20:42:15.873Z,3.87
2019-03-26T20:44:47.218Z,4.20
2019-03-26T20:47:18.642Z,3.23
2019-03-26T20:49:51.191Z,3.10
2019-03-26T20:52:22.652Z,3.50
2019-03-26T20:54:54.153Z,3.60
2019-03-26T20:57:25.837Z,3.23
2019-03-26T20:59:57.371Z,3.17
2019-03-26T21:02:28.839Z,3.60
2019-03-26T21:05:00.363Z,4.07
2019-03-26T21:07:32.003Z,3.80
2019-03-26T21:10:03.438Z,3.27
2019-03-26T21:12:35.067Z,3.97
2019-03-26T21:15:07.678Z,4.20
2019-03-26T21:17:39.392Z,3.50
2019-03-26T21:20:11.787Z,3.70
2019-03-26T21:22:43.227Z,4.37
2019-03-26T21:25:14.687Z,4.27
2019-03-26T21:27:46.155Z,4.37
2019-03-26T21:30:17.717Z,3.30
2019-03-26T21:32:49.071Z,3.50
2019-03-26T21:35:20.414Z,3.23
2019-03-26T21:37:51.870Z,3.80
2019-03-26T21:40:24.170Z,3.47
2019-03-26T21:42:55.499Z,4.10
2019-03-26T21:45:41.847Z,3.47
2019-03-26T21:48:14.823Z,3.40
2019-03-26T21:50:46.662Z,3.20
2019-03-26T21:53:18.035Z,3.60
2019-03-26T21:55:49.416Z,3.27
2019-03-26T21:58:20.892Z,3.73
2019-03-26T22:00:53.208Z,3.53
2019-03-26T22:03:24.525Z,3.63
2019-03-26T22:05:55.832Z,4.37
2019-03-26T22:08:27.153Z,3.70
2019-03-26T22:10:58.516Z,3.70
2019-03-26T22:13:29.821Z,3.77
2019-03-26T22:16:02.071Z,4.53
2019-03-26T22:18:33.572Z,3.63
2019-03-26T22:21:04.983Z,3.37
2019-03-26T22:23:36.250Z,4.17
2019-03-26T22:26:07.571Z,3.50
2019-03-26T22:28:38.923Z,4.70
2019-03-26T22:31:10.274Z,3.80
2019-03-26T22:33:41.619Z,4.50
2019-03-26T22:36:12.897Z,4.13
2019-03-26T22:38:44.280Z,4.23
2019-03-26T22:41:16.454Z,4.37
2019-03-26T22:43:47.784Z,4.30
2019-03-26T22:46:19.107Z,4.73
2019-03-26T22:48:50.391Z,3.90
2019-03-26T22:51:21.732Z,3.93
2019-03-26T22:53:53.061Z,4.40
2019-03-26T22:56:24.375Z,4.20
2019-03-26T22:58:55.751Z,4.43
2019-03-26T23:01:27.199Z,4.83
2019-03-26T23:03:58.569Z,4.40
2019-03-26T23:06:29.864Z,4.63
2019-03-26T23:09:01.205Z,4.23
2019-03-26T23:11:34.078Z,4.00
2019-03-26T23:14:05.367Z,4.60
2019-03-26T23:16:36.740Z,4.70
2019-03-26T23:19:08.131Z,4.70
2019-03-26T23:21:39.413Z,5.50
2019-03-26T23:24:10.708Z,5.60
2019-03-26T23:26:42.113Z,5.37
2019-03-26T23:29:13.467Z,5.13
2019-03-26T23:31:44.844Z,6.07
2019-03-26T23:34:16.349Z,5.20
2019-03-26T23:36:47.665Z,5.40
2019-03-26T23:39:18.963Z,5.40
2019-03-26T23:41:50.875Z,4.97
2019-03-26T23:44:26.043Z,5.10
2019-03-26T23:46:55.404Z,3.93
2019-03-26T23:49:26.734Z,4.73
2019-03-26T23:51:58.045Z,4.10
2019-03-26T23:54:30.336Z,4.77
2019-03-26T23:57:01.662Z,4.97
2019-03-26T23:59:33.837Z,4.90
